Time;durP1;ratioP1;P1;durP2;ratioP2;P2;SDS_P1;SDS_P2;PMS_P1;PMS_P2;Temp;Humidity;BMP_temperature;BMP_pressure;BME280_temperature;BME280_humidity;BME280_pressure;Samples;Min_cycle;Max_cycle;Signal;HPM_P1;HPM_P2
2022/10/15 00:01:39;;;;;;;1.80;1.70;;;17.30;69.20;18.40;99955.00;;;;4971120;28;20747;-47
2022/10/15 00:04:05;;;;;;;1.73;1.63;;;17.30;69.20;18.40;99955.00;;;;4970781;28;20199;-47
2022/10/15 00:06:31;;;;;;;1.80;1.70;;;17.30;69.20;18.40;99952.00;;;;4970838;28;20206;-47
2022/10/15 00:08:57;;;;;;;1.97;1.87;;;17.30;69.20;18.40;99953.00;;;;4971654;28;20268;-48
2022/10/15 00:11:24;;;;;;;1.80;1.70;;;17.20;69.10;18.40;99953.00;;;;4971743;28;20319;-47
2022/10/15 00:13:52;;;;;;;2.03;1.93;;;17.30;69.20;18.40;99958.00;;;;4970443;28;20660;-47
2022/10/15 00:16:20;;;;;;;1.90;1.80;;;17.30;69.20;18.40;99951.00;;;;4971314;28;20243;-47
2022/10/15 00:18:47;;;;;;;1.90;1.80;;;17.20;69.10;18.40;99949.00;;;;4969503;28;20695;-47
2022/10/15 00:21:14;;;;;;;1.90;1.80;;;17.20;69.10;18.40;99952.00;;;;4971011;28;20514;-47
2022/10/15 00:23:40;;;;;;;1.80;1.70;;;17.20;69.10;18.40;99932.00;;;;4970640;28;20256;-47
2022/10/15 00:26:11;;;;;;;1.83;1.73;;;17.20;69.10;18.40;99930.00;;;;4970966;28;20269;-48
2022/10/15 00:28:37;;;;;;;1.80;1.70;;;17.20;69.10;18.30;99920.00;;;;4970789;28;20278;-47
2022/10/15 00:31:06;;;;;;;1.80;1.70;;;17.20;69.10;18.30;99911.00;;;;4970675;28;20606;-47
2022/10/15 00:33:31;;;;;;;1.80;1.70;;;17.20;69.10;18.30;99920.00;;;;4970316;28;20196;-47
2022/10/15 00:36:06;;;;;;;1.80;1.70;;;17.20;69.10;18.30;99937.00;;;;4970948;28;20259;-47
2022/10/15 00:38:32;;;;;;;1.73;1.63;;;17.20;69.10;18.30;99941.00;;;;4970316;28;20339;-46
2022/10/15 00:40:58;;;;;;;1.70;1.60;;;17.20;69.10;18.30;99932.00;;;;4970608;28;20181;-47
2022/10/15 00:43:44;;;;;;;1.80;1.70;;;17.20;69.10;18.30;99937.00;;;;4970351;28;20584;-47
2022/10/15 00:46:40;;;;;;;1.60;1.50;;;17.20;69.20;18.30;99927.00;;;;4970487;28;20225;-47
2022/10/15 00:49:25;;;;;;;1.87;1.77;;;17.20;69.10;18.30;99929.00;;;;4970297;28;20685;-47
2022/10/15 00:52:12;;;;;;;1.87;1.77;;;17.20;69.10;18.30;99900.00;;;;4970487;28;20162;-47
2022/10/15 00:54:58;;;;;;;1.70;1.60;;;17.20;69.10;18.30;99848.00;;;;4970564;28;20521;-46
2022/10/15 00:57:24;;;;;;;1.83;1.73;;;17.20;69.10;18.30;99921.00;;;;4955546;28;20219;-46
2022/10/15 00:59:52;;;;;;;1.80;1.70;;;17.20;69.20;18.30;99912.00;;;;4971848;28;20536;-46
2022/10/15 01:02:18;;;;;;;1.90;1.80;;;17.20;69.20;18.30;99904.00;;;;4969396;28;20187;-46
2022/10/15 01:04:44;;;;;;;1.80;1.70;;;17.20;69.20;18.30;99910.00;;;;4969131;28;20181;-46
2022/10/15 01:07:10;;;;;;;1.80;1.70;;;17.20;69.20;18.30;99918.00;;;;4968902;28;20285;-47
2022/10/15 01:09:36;;;;;;;1.77;1.67;;;17.10;69.10;18.30;99922.00;;;;4972298;28;20176;-48
2022/10/15 01:12:01;;;;;;;1.90;1.80;;;17.20;69.20;18.30;99915.00;;;;4974383;28;20598;-47
2022/10/15 01:14:42;;;;;;;1.73;1.63;;;17.20;69.20;18.30;99927.00;;;;4973008;28;20179;-46
2022/10/15 01:17:25;;;;;;;1.87;1.77;;;17.20;69.20;18.30;99931.00;;;;4974569;28;20271;-46
2022/10/15 01:20:28;;;;;;;1.70;1.60;;;17.20;69.20;18.30;99928.00;;;;4973732;28;20157;-48
2022/10/15 01:23:27;;;;;;;1.70;1.60;;;17.10;69.20;18.30;99920.00;;;;4974423;28;20204;-46
2022/10/15 01:26:28;;;;;;;1.70;1.60;;;17.20;69.30;18.30;99931.00;;;;4973077;28;20164;-47
2022/10/15 01:29:56;;;;;;;1.70;1.60;;;17.10;69.20;18.30;99930.00;;;;4973536;28;20287;-47
2022/10/15 01:32:27;;;;;;;1.87;1.77;;;17.20;69.20;18.20;99930.00;;;;4933107;29;20184;-47
2022/10/15 01:35:26;;;;;;;1.67;1.57;;;17.20;69.20;18.00;99929.00;;;;4916612;29;20186;-47
2022/10/15 01:38:24;;;;;;;1.73;1.63;;;17.10;69.20;18.20;99939.00;;;;4966302;28;20603;-46
2022/10/15 01:41:16;;;;;;;1.70;1.60;;;17.20;69.30;18.20;99929.00;;;;4971875;28;20190;-46
2022/10/15 01:43:58;;;;;;;1.70;1.60;;;17.20;69.30;18.20;99920.00;;;;4972116;28;20160;-47
2022/10/15 01:46:35;;;;;;;1.90;1.80;;;17.10;69.00;18.20;99940.00;;;;4957087;28;20171;-46
2022/10/15 01:49:02;;;;;;;1.70;1.60;;;17.20;69.30;18.20;99915.00;;;;4972897;28;20182;-48
2022/10/15 01:51:28;;;;;;;1.67;1.57;;;17.10;69.20;18.20;99930.00;;;;4956405;28;20708;-47
2022/10/15 01:53:54;;;;;;;1.90;1.80;;;17.20;69.30;18.20;99925.00;;;;4969866;28;20281;-48
2022/10/15 01:56:20;;;;;;;1.73;1.63;;;17.20;69.30;18.30;99929.00;;;;4973298;28;20181;-46
2022/10/15 01:58:46;;;;;;;1.70;1.60;;;17.10;69.20;18.30;99899.00;;;;4973330;28;20278;-46
2022/10/15 02:01:12;;;;;;;1.80;1.70;;;17.10;69.20;18.30;99919.00;;;;4956270;28;20172;-47
2022/10/15 02:03:46;;;;;;;1.70;1.60;;;17.10;69.10;18.30;99920.00;;;;4973448;28;20196;-46
2022/10/15 02:06:17;;;;;;;1.80;1.70;;;17.10;69.20;18.30;99924.00;;;;4972886;28;20187;-47
2022/10/15 02:09:10;;;;;;;1.70;1.60;;;17.10;69.20;18.30;99918.00;;;;4956463;28;20256;-46
2022/10/15 02:12:09;;;;;;;1.40;1.40;;;17.10;69.20;18.30;99914.00;;;;4972308;28;20256;-47
2022/10/15 02:15:10;;;;;;;1.67;1.57;;;17.10;69.20;18.20;99915.00;;;;4973580;28;20169;-47
2022/10/15 02:18:02;;;;;;;1.80;1.70;;;17.10;69.20;18.20;99918.00;;;;4971691;28;20223;-47
2022/10/15 02:20:57;;;;;;;1.80;1.70;;;17.10;69.20;18.20;99887.00;;;;4971619;28;20186;-47
2022/10/15 02:23:35;;;;;;;1.70;1.60;;;17.20;69.30;18.20;99918.00;;;;4971165;28;20175;-48
2022/10/15 02:26:01;;;;;;;1.83;1.73;;;17.10;69.20;18.20;99915.00;;;;4957221;28;20215;-46
2022/10/15 02:28:27;;;;;;;1.60;1.50;;;17.10;69.20;18.20;99908.00;;;;4955448;28;20672;-47
2022/10/15 02:30:52;;;;;;;1.80;1.70;;;17.10;69.20;18.20;99904.00;;;;4971428;28;20179;-47
2022/10/15 02:33:19;;;;;;;1.50;1.40;;;17.10;69.20;18.20;99905.00;;;;4971502;28;20178;-47
2022/10/15 02:35:45;;;;;;;1.87;1.60;;;17.10;69.10;18.20;99907.00;;;;4971747;28;20675;-47
2022/10/15 02:38:12;;;;;;;1.50;1.40;;;17.10;69.20;18.20;99912.00;;;;4971663;28;20296;-47
2022/10/15 02:40:38;;;;;;;1.50;1.50;;;17.10;69.20;18.20;99922.00;;;;4971802;28;20231;-47
2022/10/15 02:43:09;;;;;;;1.57;1.47;;;17.10;69.10;18.20;99925.00;;;;4955379;28;20173;-47
2022/10/15 02:45:36;;;;;;;1.60;1.50;;;17.10;69.10;18.20;99931.00;;;;4972240;28;20183;-47
2022/10/15 02:48:01;;;;;;;1.70;1.60;;;17.10;69.90;18.20;99932.00;;;;4972413;28;20208;-47
2022/10/15 02:50:27;;;;;;;1.80;1.70;;;17.10;69.20;18.20;99935.00;;;;4972620;28;20227;-47
2022/10/15 02:52:53;;;;;;;1.57;1.47;;;17.10;69.20;18.20;99916.00;;;;4971753;28;20502;-47
2022/10/15 02:55:18;;;;;;;1.87;1.77;;;17.10;69.10;18.20;99911.00;;;;4972410;28;20195;-49
2022/10/15 02:57:44;;;;;;;1.70;1.60;;;17.10;69.10;18.20;99926.00;;;;4972174;28;20564;-47
2022/10/15 03:00:10;;;;;;;1.53;1.43;;;17.10;69.10;18.20;99929.00;;;;4972610;28;20173;-48
2022/10/15 03:02:36;;;;;;;1.73;1.63;;;17.10;69.10;18.20;99934.00;;;;4987983;28;20729;-48
2022/10/15 03:05:02;;;;;;;2.40;1.80;;;17.10;69.10;18.30;99948.00;;;;4971737;28;20165;-46
2022/10/15 03:07:28;;;;;;;1.80;1.70;;;17.10;69.00;18.20;99929.00;;;;4972310;28;20211;-47
2022/10/15 03:09:53;;;;;;;1.63;1.53;;;17.10;69.10;18.20;99929.00;;;;4972493;28;20172;-46
2022/10/15 03:12:22;;;;;;;1.73;1.63;;;17.10;69.10;18.20;99923.00;;;;4971806;28;20203;-45
2022/10/15 03:14:48;;;;;;;1.50;1.40;;;17.10;69.00;18.20;99915.00;;;;4971776;28;20181;-47
2022/10/15 03:17:14;;;;;;;1.70;1.60;;;17.10;69.10;18.20;99911.00;;;;4971975;28;20196;-48
2022/10/15 03:19:40;;;;;;;2.20;1.70;;;17.00;69.00;18.20;99899.00;;;;4971931;28;20173;-48
2022/10/15 03:22:05;;;;;;;2.03;1.70;;;17.10;69.10;18.20;99840.00;;;;4970614;28;20678;-48
2022/10/15 03:24:31;;;;;;;1.70;1.60;;;17.10;69.20;18.20;99906.00;;;;4971176;28;20393;-46
2022/10/15 03:26:57;;;;;;;1.50;1.40;;;17.00;69.00;18.20;99912.00;;;;4971681;28;20606;-46
2022/10/15 03:29:22;;;;;;;1.53;1.50;;;17.10;69.10;18.20;99914.00;;;;4971810;28;20177;-46
2022/10/15 03:31:48;;;;;;;1.67;1.57;;;17.10;69.00;18.20;99903.00;;;;4971333;28;20200;-47
2022/10/15 03:34:14;;;;;;;1.70;1.60;;;17.10;69.00;18.20;99892.00;;;;4971401;28;20557;-46
2022/10/15 03:36:40;;;;;;;2.10;1.63;;;17.10;69.10;18.20;99895.00;;;;4971998;28;20247;-46
2022/10/15 03:39:07;;;;;;;1.70;1.50;;;17.10;69.10;18.20;99904.00;;;;4971704;28;20215;-47
2022/10/15 03:41:33;;;;;;;2.83;1.77;;;17.10;69.10;18.20;99902.00;;;;4971482;28;20168;-46
2022/10/15 03:44:02;;;;;;;4.30;2.00;;;17.00;69.00;18.20;99895.00;;;;4973058;28;20180;-48
2022/10/15 03:46:28;;;;;;;2.77;1.70;;;17.00;68.90;18.20;99905.00;;;;4971187;28;20208;-47
2022/10/15 03:48:54;;;;;;;3.10;1.67;;;17.00;69.00;18.20;99879.00;;;;4971389;28;20287;-46
2022/10/15 03:51:19;;;;;;;3.33;1.70;;;17.10;69.00;18.20;99890.00;;;;4971084;28;20188;-46
2022/10/15 03:53:45;;;;;;;4.87;1.90;;;17.10;69.00;18.20;99886.00;;;;4970699;28;20457;-46
2022/10/15 03:56:11;;;;;;;4.43;1.80;;;17.10;69.00;18.20;99887.00;;;;4970911;28;20676;-46
2022/10/15 03:58:37;;;;;;;5.17;1.80;;;17.10;69.00;18.20;99882.00;;;;4970556;28;20224;-46
2022/10/15 04:01:09;;;;;;;2.57;1.73;;;17.10;69.00;18.20;99891.00;;;;4970416;28;20255;-46
2022/10/15 04:03:34;;;;;;;4.53;1.80;;;17.10;69.10;18.20;99886.00;;;;4971043;28;20431;-47
2022/10/15 04:06:00;;;;;;;6.70;2.20;;;17.10;69.00;18.20;99886.00;;;;4969528;28;20176;-47
2022/10/15 04:08:26;;;;;;;2.10;1.70;;;17.00;69.00;18.20;99905.00;;;;4970735;28;20198;-47
2022/10/15 04:10:51;;;;;;;2.23;1.70;;;17.10;69.00;18.20;99906.00;;;;4970263;28;20495;-46
2022/10/15 04:13:17;;;;;;;5.23;2.00;;;17.10;69.00;18.20;99902.00;;;;4970564;28;20180;-46
2022/10/15 04:15:43;;;;;;;4.37;1.80;;;17.10;69.00;18.20;99904.00;;;;4970667;28;20172;-47
2022/10/15 04:18:09;;;;;;;3.87;1.90;;;17.00;68.90;18.20;99906.00;;;;4970843;28;20279;-48
2022/10/15 04:20:34;;;;;;;4.63;1.77;;;17.00;68.90;18.20;99919.00;;;;4970528;28;20595;-49
2022/10/15 04:23:00;;;;;;;2.00;1.70;;;17.10;69.00;18.20;99921.00;;;;4970475;28;20597;-46
2022/10/15 04:25:26;;;;;;;2.53;1.80;;;17.10;69.00;18.20;99912.00;;;;4970289;28;20232;-47
2022/10/15 04:27:52;;;;;;;6.13;1.97;;;17.00;69.00;18.20;99908.00;;;;4970607;28;20276;-48
2022/10/15 04:30:18;;;;;;;3.07;1.90;;;17.00;69.10;18.20;99911.00;;;;4971358;28;20241;-48
2022/10/15 04:32:44;;;;;;;5.73;1.70;;;17.00;69.10;18.20;99926.00;;;;4971653;28;20179;-46
2022/10/15 04:35:10;;;;;;;4.87;1.87;;;17.00;69.00;18.20;99931.00;;;;4971759;28;20176;-46
2022/10/15 04:37:35;;;;;;;6.17;2.03;;;17.00;68.90;18.20;99924.00;;;;4971535;28;20250;-47
2022/10/15 04:40:03;;;;;;;4.50;1.80;;;17.10;69.00;18.10;99931.00;;;;4970046;28;20180;-48
2022/10/15 04:42:29;;;;;;;5.43;1.80;;;17.10;69.00;18.20;99935.00;;;;4970092;28;20306;-46
2022/10/15 04:44:55;;;;;;;6.83;1.90;;;17.10;69.00;18.20;99914.00;;;;4975839;28;20246;-46
2022/10/15 04:47:21;;;;;;;3.50;1.60;;;17.00;68.80;18.20;99914.00;;;;4977283;28;20200;-46
2022/10/15 04:49:47;;;;;;;2.30;1.83;;;17.00;68.80;18.20;99919.00;;;;4977993;28;20178;-46
2022/10/15 04:52:12;;;;;;;1.83;1.60;;;17.00;68.80;18.20;99900.00;;;;4977500;28;20171;-46
2022/10/15 04:54:38;;;;;;;6.07;1.87;;;17.00;68.80;18.20;99888.00;;;;4977429;28;20172;-46
2022/10/15 04:57:04;;;;;;;6.10;1.60;;;17.00;68.90;18.20;99891.00;;;;4977281;28;20208;-46
2022/10/15 04:59:30;;;;;;;5.20;1.90;;;17.00;69.00;18.20;99890.00;;;;4977986;28;20172;-45
2022/10/15 05:01:56;;;;;;;3.50;1.70;;;17.00;69.10;18.20;99891.00;;;;4978016;28;20165;-48
2022/10/15 05:04:21;;;;;;;2.50;1.70;;;17.00;69.10;18.20;99894.00;;;;4978105;28;20514;-47
2022/10/15 05:06:47;;;;;;;2.90;1.63;;;17.00;69.10;18.10;99895.00;;;;4978071;28;20644;-47
2022/10/15 05:09:13;;;;;;;2.40;1.67;;;17.00;69.10;18.10;99891.00;;;;4977786;28;20179;-47
2022/10/15 05:11:39;;;;;;;2.80;1.80;;;16.90;69.00;18.20;99894.00;;;;4978523;28;20180;-47
2022/10/15 05:14:04;;;;;;;2.63;1.60;;;17.00;69.10;18.10;99891.00;;;;4977684;28;20738;-47
2022/10/15 05:16:30;;;;;;;2.97;1.83;;;16.90;69.00;18.10;99898.00;;;;4977716;28;20182;-48
2022/10/15 05:19:02;;;;;;;2.40;1.73;;;17.00;69.10;18.10;99892.00;;;;4977675;28;20260;-48
2022/10/15 05:21:28;;;;;;;2.00;1.53;;;17.00;69.10;18.10;99900.00;;;;4977524;28;20264;-48
2022/10/15 05:23:54;;;;;;;1.60;1.50;;;17.00;69.00;18.10;99914.00;;;;4976863;28;20176;-46
2022/10/15 05:26:21;;;;;;;2.60;1.50;;;16.90;69.00;18.10;99910.00;;;;4976275;28;20222;-47
2022/10/15 05:28:48;;;;;;;1.83;1.50;;;17.00;69.10;18.10;99906.00;;;;4977456;28;20233;-47
2022/10/15 05:31:16;;;;;;;4.63;1.93;;;16.90;69.00;18.10;99913.00;;;;4977099;28;20205;-47
2022/10/15 05:33:42;;;;;;;2.57;1.80;;;17.00;69.10;18.10;99906.00;;;;4976765;28;20564;-47
2022/10/15 05:36:11;;;;;;;1.77;1.53;;;17.00;69.10;18.10;99906.00;;;;4978227;28;20223;-47
2022/10/15 05:38:38;;;;;;;5.83;1.70;;;16.90;69.00;18.10;99919.00;;;;4977431;28;20202;-47
2022/10/15 05:41:04;;;;;;;4.03;1.70;;;17.00;70.00;18.10;99919.00;;;;4977404;28;20168;-46
2022/10/15 05:43:29;;;;;;;6.10;1.90;;;17.00;69.00;18.10;99920.00;;;;4975742;28;20173;-47
2022/10/15 05:45:55;;;;;;;4.43;1.60;;;17.00;69.00;18.10;99918.00;;;;4977158;28;20171;-47
2022/10/15 05:48:21;;;;;;;3.43;1.63;;;17.00;69.00;18.10;99918.00;;;;4977173;28;20622;-47
2022/10/15 05:50:47;;;;;;;1.90;1.70;;;16.90;68.90;18.10;99913.00;;;;4977419;28;20272;-47
2022/10/15 05:53:12;;;;;;;2.70;1.70;;;16.90;69.00;18.10;99905.00;;;;4976927;28;20232;-47
2022/10/15 05:55:38;;;;;;;3.43;1.90;;;16.90;69.00;18.10;99918.00;;;;4975797;28;20232;-47
2022/10/15 05:58:04;;;;;;;3.23;1.60;;;17.00;69.20;18.10;99914.00;;;;4974367;28;20686;-46
2022/10/15 06:00:30;;;;;;;2.37;1.70;;;16.90;69.00;18.10;99925.00;;;;4974435;28;20177;-47
2022/10/15 06:02:56;;;;;;;3.60;1.80;;;17.00;69.20;18.10;99924.00;;;;4974285;28;20180;-46
2022/10/15 06:05:21;;;;;;;2.10;1.57;;;16.90;69.00;18.10;99922.00;;;;4974148;28;20560;-47
2022/10/15 06:07:47;;;;;;;2.33;1.80;;;16.90;68.90;18.10;99927.00;;;;4973455;28;20216;-47
2022/10/15 06:10:13;;;;;;;3.10;1.70;;;16.90;69.00;18.10;99915.00;;;;4974093;28;20187;-47
2022/10/15 06:12:39;;;;;;;7.07;1.77;;;17.00;69.10;18.10;99921.00;;;;4974615;28;20239;-46
2022/10/15 06:15:05;;;;;;;2.07;1.70;;;16.90;69.00;18.10;99908.00;;;;4973660;28;20186;-47
2022/10/15 06:17:31;;;;;;;1.80;1.70;;;17.00;69.20;18.10;99916.00;;;;4972665;28;20302;-48
2022/10/15 06:19:57;;;;;;;1.93;1.73;;;16.90;69.10;18.10;99921.00;;;;4974004;28;20311;-47
2022/10/15 06:22:22;;;;;;;1.90;1.60;;;16.90;69.10;18.10;99925.00;;;;4973725;28;20182;-47
2022/10/15 06:24:48;;;;;;;2.53;1.77;;;16.90;69.10;18.10;99927.00;;;;4973501;28;20180;-47
2022/10/15 06:27:14;;;;;;;1.80;1.60;;;16.90;69.20;18.10;99931.00;;;;4973830;28;20187;-47
2022/10/15 06:29:40;;;;;;;1.70;1.60;;;16.90;69.00;18.10;99931.00;;;;4974106;28;20648;-46
2022/10/15 06:32:09;;;;;;;2.30;1.60;;;16.90;69.10;18.10;99930.00;;;;4973908;28;20568;-45
2022/10/15 06:34:35;;;;;;;3.53;1.60;;;16.90;69.20;18.00;99941.00;;;;4971920;28;20178;-46
2022/10/15 06:37:01;;;;;;;3.23;1.53;;;16.90;69.10;18.10;99934.00;;;;4973216;28;20209;-46
2022/10/15 06:39:26;;;;;;;2.00;1.63;;;16.90;69.20;18.10;99933.00;;;;4973272;28;20213;-46
2022/10/15 06:41:52;;;;;;;1.43;1.30;;;16.90;69.10;18.00;99941.00;;;;4974129;28;20179;-46
2022/10/15 06:44:18;;;;;;;1.90;1.77;;;16.90;69.20;18.00;99937.00;;;;4973309;28;20525;-48
2022/10/15 06:46:44;;;;;;;3.00;1.70;;;17.00;69.20;18.00;99947.00;;;;4972425;28;20177;-47
2022/10/15 06:49:09;;;;;;;1.50;1.40;;;16.90;69.10;18.00;99948.00;;;;4973687;28;20176;-47
2022/10/15 06:51:36;;;;;;;2.70;1.57;;;16.90;69.00;18.00;99946.00;;;;4972383;28;20216;-48
2022/10/15 06:54:02;;;;;;;1.97;1.60;;;16.90;69.10;18.00;99946.00;;;;4973451;28;20192;-47
2022/10/15 06:56:28;;;;;;;3.13;1.60;;;17.00;69.10;18.00;99949.00;;;;4973156;28;20196;-47
2022/10/15 06:58:54;;;;;;;1.60;1.50;;;16.90;69.00;18.00;99953.00;;;;4972879;28;20232;-48
2022/10/15 07:01:20;;;;;;;1.90;1.60;;;16.90;69.00;18.00;99951.00;;;;4973300;28;20180;-47
2022/10/15 07:03:49;;;;;;;1.73;1.53;;;16.90;69.00;18.00;99950.00;;;;4972784;28;20293;-48
2022/10/15 07:06:15;;;;;;;1.60;1.50;;;16.90;69.00;18.00;99960.00;;;;4972867;28;20246;-47
2022/10/15 07:08:40;;;;;;;1.97;1.50;;;16.90;69.00;18.00;99959.00;;;;4973054;28;20237;-48
2022/10/15 07:11:08;;;;;;;1.50;1.40;;;16.90;69.00;18.00;99965.00;;;;4973335;28;20183;-47
2022/10/15 07:13:34;;;;;;;1.60;1.50;;;16.90;69.00;18.00;99959.00;;;;4972501;28;20552;-48
2022/10/15 07:16:06;;;;;;;2.07;1.63;;;16.90;69.10;18.00;99955.00;;;;4972708;28;20184;-47
2022/10/15 07:18:32;;;;;;;2.43;1.53;;;16.90;69.20;18.00;99939.00;;;;4971247;28;20562;-48
2022/10/15 07:20:58;;;;;;;4.80;1.70;;;16.90;69.20;18.00;99951.00;;;;4972829;28;20176;-46
2022/10/15 07:23:24;;;;;;;1.73;1.60;;;17.00;69.20;18.10;99948.00;;;;4971953;28;20185;-47
2022/10/15 07:25:50;;;;;;;2.40;1.50;;;17.00;69.20;18.10;99947.00;;;;4972528;28;20177;-47
2022/10/15 07:28:15;;;;;;;4.10;1.60;;;17.00;69.10;18.10;99956.00;;;;4972218;28;20677;-47
2022/10/15 07:30:41;;;;;;;5.70;1.80;;;17.00;69.10;18.10;99941.00;;;;4972555;28;20182;-47
2022/10/15 07:33:07;;;;;;;4.83;1.70;;;17.00;69.10;18.10;99957.00;;;;4972435;28;20182;-47
2022/10/15 07:35:33;;;;;;;3.77;1.70;;;17.00;69.20;18.10;99946.00;;;;4972252;28;20188;-47
2022/10/15 07:38:01;;;;;;;9.40;1.90;;;17.00;69.20;18.10;99946.00;;;;4972463;28;20208;-48
2022/10/15 07:40:27;;;;;;;12.40;2.00;;;17.00;69.30;18.00;99950.00;;;;4971149;28;20182;-47
2022/10/15 07:42:54;;;;;;;6.10;1.90;;;17.00;69.40;18.10;99947.00;;;;4972702;28;20180;-48
2022/10/15 07:45:20;;;;;;;5.93;1.70;;;17.00;69.40;18.10;99949.00;;;;4971798;28;20789;-47
2022/10/15 07:47:46;;;;;;;5.47;1.87;;;16.90;69.30;18.10;99953.00;;;;4970666;28;20197;-47
2022/10/15 07:50:11;;;;;;;5.87;1.60;;;16.90;69.30;18.00;99948.00;;;;4972223;28;20188;-48
2022/10/15 07:52:37;;;;;;;2.87;1.80;;;16.90;69.30;18.10;99939.00;;;;4972285;28;20180;-49
2022/10/15 07:55:03;;;;;;;3.83;1.97;;;17.00;69.40;18.00;99940.00;;;;4972225;28;20191;-47
2022/10/15 07:57:29;;;;;;;4.53;1.73;;;16.90;69.40;18.10;99945.00;;;;4971858;28;20247;-47
2022/10/15 07:59:55;;;;;;;7.23;2.00;;;16.90;69.30;18.10;99939.00;;;;4971969;28;20214;-48
2022/10/15 08:02:21;;;;;;;4.57;1.70;;;17.00;69.40;18.00;99935.00;;;;4971935;28;20187;-47
2022/10/15 08:04:47;;;;;;;5.97;1.77;;;16.90;69.30;18.10;99932.00;;;;4971485;28;20648;-47
2022/10/15 08:07:12;;;;;;;3.40;1.90;;;17.00;69.40;18.10;99934.00;;;;4972018;28;20199;-47
2022/10/15 08:09:38;;;;;;;2.47;1.80;;;17.00;69.40;18.10;99954.00;;;;4972078;28;20633;-47
2022/10/15 08:12:05;;;;;;;3.17;1.90;;;17.00;69.40;18.10;99932.00;;;;4971826;28;20181;-48
2022/10/15 08:14:35;;;;;;;2.27;1.60;;;17.00;69.40;18.10;99931.00;;;;4972083;28;20180;-48
2022/10/15 08:17:04;;;;;;;2.27;1.63;;;17.00;69.40;18.00;99928.00;;;;4971780;28;20297;-47
2022/10/15 08:19:30;;;;;;;2.53;1.60;;;17.00;69.40;18.10;99924.00;;;;4971033;28;20216;-47
2022/10/15 08:21:56;;;;;;;4.40;1.70;;;17.00;69.40;18.10;99918.00;;;;4971790;28;20176;-47
2022/10/15 08:24:22;;;;;;;4.07;1.70;;;17.00;69.40;18.10;99923.00;;;;4971483;28;20262;-47
2022/10/15 08:26:48;;;;;;;2.30;1.70;;;17.00;69.30;18.10;99918.00;;;;4971999;28;20649;-47
2022/10/15 08:29:14;;;;;;;2.17;1.67;;;17.00;69.40;18.00;99914.00;;;;4971810;28;20267;-47
2022/10/15 08:31:40;;;;;;;2.07;1.43;;;17.00;70.10;18.10;99918.00;;;;4971748;28;20180;-48
2022/10/15 08:34:06;;;;;;;2.90;1.60;;;17.00;69.40;18.10;99915.00;;;;4970485;28;20188;-47
2022/10/15 08:36:31;;;;;;;1.77;1.47;;;17.00;69.40;18.10;99920.00;;;;4971644;28;20187;-48
2022/10/15 08:38:57;;;;;;;2.23;1.57;;;17.00;69.40;18.10;99915.00;;;;4971265;28;20563;-48
2022/10/15 08:41:33;;;;;;;2.40;1.47;;;17.00;69.40;18.10;99917.00;;;;4971585;28;20203;-47
2022/10/15 08:43:59;;;;;;;1.90;1.60;;;17.00;69.40;18.10;99911.00;;;;4970940;28;20254;-48
2022/10/15 08:46:41;;;;;;;2.07;1.60;;;17.00;69.30;18.10;99904.00;;;;4970289;28;20537;-49
2022/10/15 08:49:11;;;;;;;1.67;1.57;;;17.00;69.30;18.10;99911.00;;;;4972121;28;20525;-47
2022/10/15 08:51:45;;;;;;;1.80;1.67;;;17.00;69.20;18.10;99905.00;;;;4954803;28;20193;-47
2022/10/15 08:54:17;;;;;;;2.00;1.53;;;17.10;69.40;18.10;99916.00;;;;4971098;28;20167;-47
2022/10/15 08:56:46;;;;;;;2.07;1.43;;;17.10;69.50;18.10;99909.00;;;;4972534;28;20213;-47
2022/10/15 08:59:47;;;;;;;1.47;1.37;;;17.00;69.40;18.20;99909.00;;;;4971342;28;20279;-48
2022/10/15 09:02:21;;;;;;;1.70;1.60;;;17.00;69.30;18.10;99901.00;;;;4950654;28;20236;-47
2022/10/15 09:05:25;;;;;;;1.50;1.40;;;17.00;69.40;18.20;99911.00;;;;4954757;28;20175;-47
2022/10/15 09:08:21;;;;;;;2.47;1.50;;;17.00;69.40;18.10;99911.00;;;;4973986;28;20270;-47
2022/10/15 09:11:01;;;;;;;1.50;1.40;;;17.10;69.50;18.20;99908.00;;;;4940707;28;20203;-47
2022/10/15 09:13:33;;;;;;;1.67;1.40;;;17.10;69.50;18.10;99905.00;;;;4969994;28;20184;-47
2022/10/15 09:16:15;;;;;;;1.60;1.50;;;17.10;69.50;18.20;99905.00;;;;4954624;28;20179;-47
2022/10/15 09:18:43;;;;;;;1.60;1.50;;;17.10;69.50;18.20;99907.00;;;;4969856;28;20215;-47
2022/10/15 09:21:10;;;;;;;1.30;1.30;;;17.10;69.60;18.20;99902.00;;;;4970088;28;20197;-49
2022/10/15 09:23:36;;;;;;;2.03;1.60;;;17.10;69.60;18.20;99901.00;;;;4969545;28;20180;-48
2022/10/15 09:26:10;;;;;;;1.63;1.37;;;17.10;69.60;18.20;99897.00;;;;4971062;28;20204;-47
2022/10/15 09:29:14;;;;;;;1.93;1.50;;;17.10;69.60;18.20;99893.00;;;;4970461;28;20244;-48
2022/10/15 09:32:14;;;;;;;1.67;1.50;;;17.10;69.60;18.20;99907.00;;;;4958580;28;20744;-47
2022/10/15 09:34:55;;;;;;;1.70;1.60;;;17.10;69.60;18.20;99888.00;;;;4972819;28;20638;-48
2022/10/15 09:37:45;;;;;;;2.10;1.50;;;17.10;69.60;18.20;99887.00;;;;4974437;28;20237;-47
2022/10/15 09:40:49;;;;;;;1.07;1.07;;;17.10;69.70;18.20;99882.00;;;;4959374;28;20642;-47
2022/10/15 09:43:17;;;;;;;1.57;1.47;;;17.10;69.70;18.20;99885.00;;;;4974940;28;20176;-47
2022/10/15 09:45:43;;;;;;;2.10;1.37;;;17.10;69.80;18.20;99895.00;;;;4973252;28;20183;-47
2022/10/15 09:48:16;;;;;;;1.73;1.63;;;17.10;69.90;18.20;99878.00;;;;4974515;28;20203;-48
2022/10/15 09:50:48;;;;;;;1.63;1.30;;;17.10;69.90;18.20;99888.00;;;;4973089;28;20169;-47
2022/10/15 09:53:59;;;;;;;1.53;1.43;;;17.10;69.80;18.30;99868.00;;;;4957513;28;20207;-47
2022/10/15 09:56:44;;;;;;;1.40;1.30;;;17.20;69.90;18.30;99891.00;;;;4927341;28;20217;-48
2022/10/15 09:59:18;;;;;;;1.63;1.53;;;17.10;69.80;18.30;99875.00;;;;4958341;28;20215;-47
2022/10/15 10:02:00;;;;;;;2.10;1.40;;;17.10;69.90;18.30;99877.00;;;;4973775;28;20242;-47
2022/10/15 10:04:31;;;;;;;1.40;1.30;;;17.20;70.00;18.30;99879.00;;;;4973833;28;20161;-48
2022/10/15 10:07:00;;;;;;;1.27;1.20;;;17.10;69.90;18.30;99879.00;;;;4973952;28;20334;-45
2022/10/15 10:09:31;;;;;;;1.33;1.33;;;17.20;70.10;18.30;99878.00;;;;4972738;28;20537;-47
2022/10/15 10:12:03;;;;;;;1.60;1.50;;;17.20;70.10;18.30;99872.00;;;;4973252;28;20176;-47
2022/10/15 10:14:32;;;;;;;1.30;1.30;;;17.20;70.10;18.30;99866.00;;;;4956719;28;20172;-48
2022/10/15 10:17:17;;;;;;;1.40;1.30;;;17.20;70.10;18.30;99865.00;;;;4972390;28;20207;-47
2022/10/15 10:19:43;;;;;;;1.50;1.40;;;17.20;70.10;18.40;99874.00;;;;4974148;28;20289;-48
2022/10/15 10:22:18;;;;;;;1.40;1.30;;;17.20;70.20;18.30;99865.00;;;;4974108;28;20552;-47
2022/10/15 10:24:47;;;;;;;1.63;1.50;;;17.20;70.10;18.40;99857.00;;;;4972417;28;20232;-46
2022/10/15 10:27:24;;;;;;;1.40;1.30;;;17.20;70.20;18.40;99859.00;;;;4973646;28;20789;-47
2022/10/15 10:30:00;;;;;;;1.60;1.50;;;17.20;70.30;18.40;99850.00;;;;4972667;28;20211;-46
2022/10/15 10:32:29;;;;;;;1.17;1.10;;;17.20;70.30;18.40;99854.00;;;;4972834;28;20176;-47
2022/10/15 10:34:55;;;;;;;1.40;1.30;;;17.20;70.30;18.40;99859.00;;;;4971982;28;20685;-45
2022/10/15 10:37:21;;;;;;;1.20;1.20;;;17.30;70.50;18.40;99853.00;;;;4971700;28;20198;-45
2022/10/15 10:39:58;;;;;;;1.30;1.20;;;17.30;70.40;18.40;99861.00;;;;4972542;28;20181;-45
2022/10/15 10:42:30;;;;;;;1.87;1.20;;;17.30;70.50;18.40;99858.00;;;;4971452;28;20673;-48
2022/10/15 10:45:28;;;;;;;1.30;1.20;;;17.30;70.50;18.40;99857.00;;;;4973567;28;20154;-46
2022/10/15 10:47:54;;;;;;;1.50;1.40;;;17.30;70.70;18.40;99849.00;;;;4972475;28;20193;-48
2022/10/15 10:50:34;;;;;;;1.37;1.27;;;17.30;70.60;18.50;99850.00;;;;4972490;28;20969;-47
2022/10/15 10:53:23;;;;;;;1.27;1.23;;;17.30;70.60;18.50;99853.00;;;;4971599;28;20234;-48
2022/10/15 10:55:49;;;;;;;1.27;1.27;;;17.30;70.60;18.40;99843.00;;;;4973340;28;20173;-46
2022/10/15 10:58:19;;;;;;;1.43;1.33;;;17.30;70.50;18.50;99844.00;;;;4973071;28;20228;-46
2022/10/15 11:00:54;;;;;;;1.57;1.47;;;17.30;70.70;18.50;99843.00;;;;4972927;28;20184;-46
2022/10/15 11:03:31;;;;;;;1.33;1.23;;;17.30;70.70;18.50;99845.00;;;;4973761;28;20643;-46
2022/10/15 11:06:44;;;;;;;1.20;1.10;;;17.30;70.70;18.50;99847.00;;;;4973107;28;20182;-46
2022/10/15 11:09:53;;;;;;;1.07;1.07;;;17.30;70.80;18.50;99844.00;;;;4959554;28;20612;-46
2022/10/15 11:13:15;;;;;;;1.10;1.10;;;17.30;70.80;18.50;99836.00;;;;4902278;29;20575;-47